createdAt,value
2017-10-26T00:00:05.681Z,101728.93
2017-10-26T00:02:32.425Z,101739.43
2017-10-26T00:04:58.159Z,101742.11
2017-10-26T00:07:24.875Z,101735.59
2017-10-26T00:09:51.567Z,101739.38
2017-10-26T00:12:18.231Z,101733.30
2017-10-26T00:14:43.958Z,101730.11
2017-10-26T00:17:09.699Z,101726.59
2017-10-26T00:19:36.447Z,101721.83
2017-10-26T00:22:02.206Z,101724.23
2017-10-26T00:24:28.985Z,101726.42
2017-10-26T00:26:54.763Z,101751.78
2017-10-26T00:29:21.456Z,101752.50
2017-10-26T00:31:47.195Z,101752.35
2017-10-26T00:34:12.925Z,101753.55
2017-10-26T00:36:38.659Z,101758.74
2017-10-26T00:39:04.432Z,101748.66
2017-10-26T00:41:31.011Z,101743.75
2017-10-26T00:43:56.755Z,101755.83
2017-10-26T00:46:22.536Z,101770.22
2017-10-26T00:48:48.320Z,101774.28
2017-10-26T00:51:14.057Z,101777.10
2017-10-26T00:53:39.787Z,101776.14
2017-10-26T00:56:06.464Z,101780.91
2017-10-26T00:58:32.203Z,101777.23
2017-10-26T01:00:57.952Z,101779.95
2017-10-26T01:03:23.687Z,101773.42
2017-10-26T01:05:50.483Z,101772.77
2017-10-26T01:08:16.219Z,101774.19
2017-10-26T01:10:41.956Z,101763.70
2017-10-26T01:13:07.695Z,101764.55
2017-10-26T01:15:33.443Z,101762.06
2017-10-26T01:17:59.170Z,101752.09
2017-10-26T01:20:24.916Z,101757.28
2017-10-26T01:22:50.667Z,101773.01
2017-10-26T01:25:16.408Z,101775.60
2017-10-26T01:27:42.153Z,101770.28
2017-10-26T01:30:07.941Z,101773.20
2017-10-26T01:32:33.691Z,101769.86
2017-10-26T01:34:59.424Z,101772.45
2017-10-26T01:37:25.160Z,101768.29
2017-10-26T01:39:50.892Z,101772.11
2017-10-26T01:42:16.945Z,101770.65
2017-10-26T01:44:43.540Z,101769.98
2017-10-26T01:47:09.287Z,101770.58
2017-10-26T01:49:36.072Z,101767.28
2017-10-26T01:52:02.802Z,101768.89
2017-10-26T01:54:29.582Z,101774.41
2017-10-26T01:56:55.327Z,101774.41
2017-10-26T01:59:21.069Z,101777.42
2017-10-26T02:01:47.742Z,101779.66
2017-10-26T02:04:14.461Z,101782.81
2017-10-26T02:06:41.192Z,101776.45
2017-10-26T02:09:06.974Z,101771.49
2017-10-26T02:11:33.598Z,101775.02
2017-10-26T02:14:00.895Z,101773.14
2017-10-26T02:16:27.493Z,101771.98
2017-10-26T02:18:54.175Z,101771.50
2017-10-26T02:21:19.968Z,101783.69
2017-10-26T02:23:46.753Z,101779.29
2017-10-26T02:26:13.399Z,101780.60
2017-10-26T02:28:45.439Z,101777.49
2017-10-26T02:31:18.056Z,101774.92
2017-10-26T02:33:44.692Z,101763.41
2017-10-26T02:36:10.424Z,101765.98
2017-10-26T02:38:37.255Z,101771.67
2017-10-26T02:41:03.532Z,101765.89
2017-10-26T02:43:29.823Z,101762.09
2017-10-26T02:45:55.667Z,101757.14
2017-10-26T02:48:22.467Z,101756.45
2017-10-26T02:50:49.156Z,101754.05
2017-10-26T02:53:15.828Z,101752.53
2017-10-26T02:55:42.547Z,101755.66
2017-10-26T02:58:08.288Z,101750.78
2017-10-26T03:00:34.972Z,101746.14
2017-10-26T03:03:01.136Z,101748.98
2017-10-26T03:05:27.663Z,101756.63
2017-10-26T03:07:53.400Z,101760.52
2017-10-26T03:10:20.173Z,101756.39
2017-10-26T03:12:46.735Z,101751.50
2017-10-26T03:15:13.407Z,101754.52
2017-10-26T03:17:40.088Z,101763.09
2017-10-26T03:20:05.821Z,101767.87
2017-10-26T03:22:32.529Z,101763.63
2017-10-26T03:24:59.227Z,101765.02
2017-10-26T03:27:25.005Z,101765.63
2017-10-26T03:29:51.701Z,101757.98
2017-10-26T03:32:18.378Z,101749.16
2017-10-26T03:34:44.113Z,101745.16
2017-10-26T03:37:09.847Z,101735.25
2017-10-26T03:39:36.543Z,101740.03
2017-10-26T03:42:03.317Z,101746.32
2017-10-26T03:44:29.902Z,101744.30
2017-10-26T03:46:56.566Z,101729.27
2017-10-26T03:49:23.309Z,101734.41
2017-10-26T03:51:49.991Z,101740.82
2017-10-26T03:54:15.723Z,101728.84
2017-10-26T03:56:41.464Z,101732.88
2017-10-26T03:59:07.208Z,101735.25
2017-10-26T04:01:33.769Z,101739.97
2017-10-26T04:04:01.205Z,101739.19
2017-10-26T04:06:27.840Z,101738.41
2017-10-26T04:08:54.569Z,101740.14
2017-10-26T04:11:20.312Z,101751.20
2017-10-26T04:13:46.048Z,101756.27
2017-10-26T04:16:12.670Z,101759.43
2017-10-26T04:18:38.411Z,101747.81
2017-10-26T04:21:05.088Z,101739.73
2017-10-26T04:23:31.651Z,101741.10
2017-10-26T04:25:57.444Z,101748.19
2017-10-26T04:28:23.187Z,101767.80
2017-10-26T04:30:48.947Z,101784.72
2017-10-26T04:33:14.719Z,101788.48
2017-10-26T04:35:41.260Z,101774.89
2017-10-26T04:38:07.960Z,101758.69
2017-10-26T04:40:33.774Z,101763.78
2017-10-26T04:42:59.511Z,101794.64
2017-10-26T04:45:25.250Z,101798.56
2017-10-26T04:47:51.023Z,101777.28
2017-10-26T04:50:17.655Z,101756.92
2017-10-26T04:52:44.347Z,101764.89
2017-10-26T04:55:10.092Z,101761.45
2017-10-26T04:57:35.839Z,101744.24
2017-10-26T05:00:01.580Z,101768.35
2017-10-26T05:02:27.320Z,101773.38
2017-10-26T05:04:54.020Z,101768.78
2017-10-26T05:07:19.781Z,101759.70
2017-10-26T05:09:45.544Z,101759.24
2017-10-26T05:12:12.191Z,101755.73
2017-10-26T05:14:38.771Z,101755.53
2017-10-26T05:17:04.531Z,101750.70
2017-10-26T05:19:30.281Z,101751.50
2017-10-26T05:21:56.035Z,101749.99
2017-10-26T05:24:21.776Z,101746.30
2017-10-26T05:26:47.509Z,101749.64
2017-10-26T05:29:14.199Z,101743.41
2017-10-26T05:31:39.936Z,101739.04
2017-10-26T05:34:05.698Z,101734.33
2017-10-26T05:36:31.633Z,101751.73
2017-10-26T05:38:57.376Z,101755.72
2017-10-26T05:41:23.171Z,101747.34
2017-10-26T05:43:48.913Z,101753.80
2017-10-26T05:46:14.788Z,101749.94
2017-10-26T05:48:40.535Z,101743.28
2017-10-26T05:51:06.291Z,101757.48
2017-10-26T05:53:32.036Z,101757.06
2017-10-26T05:55:57.806Z,101761.21
2017-10-26T05:58:23.555Z,101760.98
2017-10-26T06:00:49.316Z,101766.17
2017-10-26T06:03:15.069Z,101772.53
2017-10-26T06:05:40.816Z,101768.29
2017-10-26T06:08:07.509Z,101764.02
2017-10-26T06:10:34.267Z,101754.58
2017-10-26T06:13:00.984Z,101736.77
2017-10-26T06:15:27.659Z,101726.32
2017-10-26T06:17:53.408Z,101720.23
2017-10-26T06:20:19.165Z,101722.94
2017-10-26T06:22:44.947Z,101723.73
2017-10-26T06:25:10.691Z,101732.84
2017-10-26T06:27:36.438Z,101739.23
2017-10-26T06:30:02.180Z,101728.61
2017-10-26T06:32:27.915Z,101747.70
2017-10-26T06:34:53.693Z,101762.62
2017-10-26T06:37:20.364Z,101763.03
2017-10-26T06:39:46.164Z,101764.42
2017-10-26T06:42:13.983Z,101786.28
2017-10-26T06:44:39.728Z,101771.08
2017-10-26T06:47:05.508Z,101786.61
2017-10-26T06:49:31.269Z,101781.09
2017-10-26T06:51:57.819Z,101796.39
2017-10-26T06:54:23.564Z,101798.50
2017-10-26T06:56:50.284Z,101800.48
2017-10-26T06:59:16.142Z,101810.58
2017-10-26T07:01:41.887Z,101809.93
2017-10-26T07:04:07.639Z,101798.68
2017-10-26T07:06:33.539Z,101802.74
2017-10-26T07:08:59.287Z,101815.40
2017-10-26T07:11:25.143Z,101812.95
2017-10-26T07:13:50.880Z,101791.26
2017-10-26T07:16:16.628Z,101772.72
2017-10-26T07:18:43.243Z,101768.72
2017-10-26T07:21:08.992Z,101779.28
2017-10-26T07:23:34.739Z,101789.17
2017-10-26T07:26:00.483Z,101788.03
2017-10-26T07:28:27.242Z,101783.75
2017-10-26T07:30:53.986Z,101762.94
2017-10-26T07:33:20.716Z,101736.60
2017-10-26T07:35:47.411Z,101758.30
2017-10-26T07:38:13.152Z,101765.61
2017-10-26T07:40:40.495Z,101761.73
2017-10-26T07:43:06.941Z,101765.98
2017-10-26T07:45:32.712Z,101766.76
2017-10-26T07:47:58.447Z,101773.13
2017-10-26T07:50:25.173Z,101757.76
2017-10-26T07:52:50.941Z,101769.13
2017-10-26T07:55:17.696Z,101759.34
2017-10-26T07:57:44.428Z,101747.07
2017-10-26T08:00:12.028Z,101746.46
2017-10-26T08:02:37.775Z,101755.72
2017-10-26T08:05:04.375Z,101774.31
2017-10-26T08:07:30.125Z,101763.68
2017-10-26T08:09:55.971Z,101758.84
2017-10-26T08:12:22.784Z,101758.73
2017-10-26T08:14:48.547Z,101775.96
2017-10-26T08:17:15.164Z,101778.97
2017-10-26T08:19:40.908Z,101756.81
2017-10-26T08:22:06.691Z,101752.41
2017-10-26T08:24:33.403Z,101755.72
2017-10-26T08:27:00.135Z,101747.23
2017-10-26T08:29:25.883Z,101739.16
2017-10-26T08:31:52.851Z,101737.90
2017-10-26T08:34:19.387Z,101737.78
2017-10-26T08:36:45.180Z,101732.28
2017-10-26T08:39:11.836Z,101723.14
2017-10-26T08:41:38.650Z,101725.47
2017-10-26T08:44:05.228Z,101723.23
2017-10-26T08:46:30.991Z,101733.30
2017-10-26T08:48:57.762Z,101735.48
2017-10-26T08:51:23.570Z,101747.23
2017-10-26T08:53:49.335Z,101734.33
2017-10-26T08:56:15.084Z,101735.34
2017-10-26T08:58:41.659Z,101729.27
2017-10-26T09:01:07.415Z,101731.44
2017-10-26T09:03:33.158Z,101736.25
2017-10-26T09:05:58.908Z,101739.40
2017-10-26T09:08:24.691Z,101732.94
2017-10-26T09:10:50.459Z,101753.16
2017-10-26T09:13:16.232Z,101751.01
2017-10-26T09:15:41.998Z,101745.02
2017-10-26T09:18:07.762Z,101745.70
2017-10-26T09:20:33.522Z,101761.02
2017-10-26T09:22:59.446Z,101754.22
2017-10-26T09:25:25.215Z,101742.48
2017-10-26T09:27:50.979Z,101736.88
2017-10-26T09:30:18.239Z,101744.24
2017-10-26T09:32:44.018Z,101741.94
2017-10-26T09:35:09.767Z,101743.44
2017-10-26T09:37:35.544Z,101743.91
2017-10-26T09:40:01.312Z,101751.83
2017-10-26T09:42:27.124Z,101738.86
2017-10-26T09:44:52.884Z,101732.87
2017-10-26T09:47:18.639Z,101728.39
2017-10-26T09:49:44.397Z,101735.22
2017-10-26T09:52:10.142Z,101732.45
2017-10-26T09:54:35.887Z,101733.76
2017-10-26T09:57:01.632Z,101727.47
2017-10-26T09:59:27.418Z,101727.48
2017-10-26T10:01:53.169Z,101718.53
2017-10-26T10:04:19.811Z,101719.27
2017-10-26T10:06:46.386Z,101730.98
2017-10-26T10:09:13.004Z,101726.96
2017-10-26T10:11:38.815Z,101731.67
2017-10-26T10:14:05.486Z,101734.56
2017-10-26T10:16:32.280Z,101730.34
2017-10-26T10:18:58.851Z,101736.19
2017-10-26T10:21:24.601Z,101741.40
2017-10-26T10:23:51.273Z,101744.11
2017-10-26T10:26:17.835Z,101739.33
2017-10-26T10:28:44.638Z,101731.00
2017-10-26T10:31:10.371Z,101725.63
2017-10-26T10:33:36.168Z,101713.86
2017-10-26T10:36:02.829Z,101713.48
2017-10-26T10:38:29.152Z,101709.22
2017-10-26T10:40:55.717Z,101719.22
2017-10-26T10:43:22.428Z,101720.84
2017-10-26T10:45:48.303Z,101707.38
2017-10-26T10:48:14.073Z,101709.45
2017-10-26T10:50:40.920Z,101704.20
2017-10-26T10:53:07.675Z,101697.93
2017-10-26T10:55:34.448Z,101687.08
2017-10-26T10:58:01.143Z,101681.81
2017-10-26T11:00:32.887Z,101679.56
2017-10-26T11:02:59.509Z,101685.94
2017-10-26T11:05:25.258Z,101677.23
2017-10-26T11:07:51.980Z,101671.12
2017-10-26T11:10:19.337Z,101671.47
2017-10-26T11:12:46.005Z,101660.20
2017-10-26T11:15:12.695Z,101672.30
2017-10-26T11:17:39.321Z,101676.22
2017-10-26T11:20:06.040Z,101668.31
2017-10-26T11:22:31.801Z,101663.87
2017-10-26T11:24:58.371Z,101652.78
2017-10-26T11:27:24.368Z,101653.87
2017-10-26T11:29:51.124Z,101652.22
2017-10-26T11:32:16.875Z,101650.52
2017-10-26T11:34:42.663Z,101658.98
2017-10-26T11:37:08.416Z,101659.28
2017-10-26T11:39:35.196Z,101657.87
2017-10-26T11:42:02.044Z,101644.23
2017-10-26T11:44:28.816Z,101653.02
2017-10-26T11:46:55.425Z,101654.32
2017-10-26T11:49:22.178Z,101640.26
2017-10-26T11:51:48.743Z,101637.36
2017-10-26T11:54:14.819Z,101625.88
2017-10-26T11:56:40.607Z,101628.53
2017-10-26T11:59:06.355Z,101628.53
2017-10-26T12:01:33.128Z,101620.98
2017-10-26T12:03:59.856Z,101619.16
2017-10-26T12:06:25.610Z,101617.30
2017-10-26T12:08:52.393Z,101617.97
2017-10-26T12:11:18.298Z,101620.41
2017-10-26T12:13:44.085Z,101619.84
2017-10-26T12:16:09.939Z,101614.61
2017-10-26T12:18:36.675Z,101605.72
2017-10-26T12:21:02.420Z,101607.50
2017-10-26T12:23:29.156Z,101598.23
2017-10-26T12:25:54.904Z,101606.98
2017-10-26T12:28:20.648Z,101601.55
2017-10-26T12:30:46.405Z,101599.03
2017-10-26T12:33:12.204Z,101593.68
2017-10-26T12:35:37.961Z,101588.57
2017-10-26T12:38:03.768Z,101591.30
2017-10-26T12:40:30.525Z,101591.20
2017-10-26T12:42:57.404Z,101588.50
2017-10-26T12:45:23.152Z,101587.20
2017-10-26T12:47:49.072Z,101589.87
2017-10-26T12:50:14.815Z,101575.73
2017-10-26T12:52:41.579Z,101577.66
2017-10-26T12:55:07.336Z,101583.50
2017-10-26T12:57:33.084Z,101582.17
2017-10-26T12:59:58.828Z,101579.51
2017-10-26T13:02:24.587Z,101565.73
2017-10-26T13:04:50.501Z,101567.75
2017-10-26T13:07:16.255Z,101561.25
2017-10-26T13:09:42.025Z,101552.43
2017-10-26T13:12:07.778Z,101547.56
2017-10-26T13:14:33.568Z,101541.45
2017-10-26T13:17:00.183Z,101531.86
2017-10-26T13:19:25.927Z,101522.41
2017-10-26T13:21:51.681Z,101510.03
2017-10-26T13:24:18.245Z,101511.98
2017-10-26T13:26:44.041Z,101514.33
2017-10-26T13:29:10.604Z,101517.38
2017-10-26T13:31:36.346Z,101515.77
2017-10-26T13:34:02.094Z,101518.91
2017-10-26T13:36:27.835Z,101519.13
2017-10-26T13:38:53.780Z,101524.41
2017-10-26T13:41:19.520Z,101530.08
2017-10-26T13:43:46.102Z,101533.29
2017-10-26T13:46:11.885Z,101532.20
2017-10-26T13:48:38.584Z,101527.86
2017-10-26T13:51:04.339Z,101524.30
2017-10-26T13:53:30.130Z,101524.50
2017-10-26T13:55:55.880Z,101525.91
2017-10-26T13:58:21.624Z,101528.42
2017-10-26T14:00:48.043Z,101514.86
2017-10-26T14:03:13.779Z,101520.38
2017-10-26T14:05:39.512Z,101514.55
2017-10-26T14:08:05.256Z,101512.62
2017-10-26T14:10:31.020Z,101514.12
2017-10-26T14:12:57.709Z,101517.03
2017-10-26T14:15:24.422Z,101518.67
2017-10-26T14:17:50.179Z,101520.17
2017-10-26T14:20:17.336Z,101523.81
2017-10-26T14:22:44.064Z,101520.70
2017-10-26T14:25:10.771Z,101519.61
2017-10-26T14:27:38.024Z,101519.20
2017-10-26T14:30:03.779Z,101514.83
2017-10-26T14:32:30.510Z,101521.85
2017-10-26T14:34:57.223Z,101524.13
2017-10-26T14:37:23.959Z,101528.88
2017-10-26T14:39:50.660Z,101531.36
2017-10-26T14:42:17.355Z,101536.93
2017-10-26T14:44:44.039Z,101536.03
2017-10-26T14:47:10.652Z,101525.17
2017-10-26T14:49:37.943Z,101522.70
2017-10-26T14:52:04.766Z,101519.83
2017-10-26T14:54:31.557Z,101519.75
2017-10-26T14:56:57.296Z,101522.23
2017-10-26T14:59:23.936Z,101515.94
2017-10-26T15:01:49.709Z,101507.47
2017-10-26T15:04:15.579Z,101497.34
2017-10-26T15:06:41.319Z,101494.00
2017-10-26T15:09:07.064Z,101485.89
2017-10-26T15:11:33.627Z,101482.09
2017-10-26T15:13:59.384Z,101475.20
2017-10-26T15:16:26.075Z,101482.70
2017-10-26T15:18:51.864Z,101481.27
2017-10-26T15:21:18.734Z,101477.13
2017-10-26T15:23:45.455Z,101474.14
2017-10-26T15:26:12.235Z,101466.80
2017-10-26T15:28:38.032Z,101468.05
2017-10-26T15:31:03.782Z,101456.97
2017-10-26T15:33:30.569Z,101456.06
2017-10-26T15:35:57.379Z,101457.48
2017-10-26T15:38:24.099Z,101448.37
2017-10-26T15:40:49.898Z,101450.13
2017-10-26T15:43:15.647Z,101447.17
2017-10-26T15:45:41.433Z,101441.83
2017-10-26T15:48:07.512Z,101440.57
2017-10-26T15:50:34.187Z,101443.23
2017-10-26T15:52:59.944Z,101436.53
2017-10-26T15:55:25.769Z,101437.50
2017-10-26T15:57:52.528Z,101441.92
2017-10-26T16:00:20.479Z,101440.84
2017-10-26T16:02:47.449Z,101442.55
2017-10-26T16:05:13.214Z,101433.66
2017-10-26T16:07:38.955Z,101441.39
2017-10-26T16:10:05.372Z,101443.87
2017-10-26T16:12:31.129Z,101445.23
2017-10-26T16:14:56.871Z,101452.52
2017-10-26T16:17:23.550Z,101457.51
2017-10-26T16:19:50.482Z,101454.61
2017-10-26T16:22:17.079Z,101447.27
2017-10-26T16:24:42.855Z,101442.11
2017-10-26T16:27:08.600Z,101435.58
2017-10-26T16:29:36.303Z,101443.14
2017-10-26T16:32:02.697Z,101436.63
2017-10-26T16:34:28.541Z,101423.34
2017-10-26T16:36:56.106Z,101422.94
2017-10-26T16:39:21.962Z,101423.87
2017-10-26T16:41:48.527Z,101416.44
2017-10-26T16:44:14.294Z,101422.36
2017-10-26T16:46:40.058Z,101421.28
2017-10-26T16:49:05.803Z,101424.43
2017-10-26T16:51:31.575Z,101420.91
2017-10-26T16:53:57.332Z,101420.44
2017-10-26T16:56:23.100Z,101420.53
2017-10-26T16:58:48.848Z,101420.95
2017-10-26T17:01:14.612Z,101411.86
2017-10-26T17:03:40.505Z,101417.11
2017-10-26T17:06:06.303Z,101420.84
2017-10-26T17:08:32.269Z,101417.65
2017-10-26T17:10:58.026Z,101417.23
2017-10-26T17:13:23.815Z,101412.26
2017-10-26T17:15:49.593Z,101412.70
2017-10-26T17:18:15.348Z,101405.96
2017-10-26T17:20:41.130Z,101405.61
2017-10-26T17:23:06.925Z,101409.27
2017-10-26T17:25:32.676Z,101411.97
2017-10-26T17:27:58.953Z,101411.62
2017-10-26T17:30:25.677Z,101412.28
2017-10-26T17:32:52.576Z,101413.96
2017-10-26T17:35:18.332Z,101416.38
2017-10-26T17:37:45.004Z,101410.61
2017-10-26T17:40:10.752Z,101407.14
2017-10-26T17:42:36.504Z,101406.84
2017-10-26T17:45:02.431Z,101403.72
2017-10-26T17:47:28.836Z,101398.56
2017-10-26T17:49:54.680Z,101403.47
2017-10-26T17:52:20.456Z,101398.64
2017-10-26T17:54:46.232Z,101400.91
2017-10-26T17:57:12.792Z,101402.98
2017-10-26T17:59:38.556Z,101393.25
2017-10-26T18:02:05.228Z,101385.86
2017-10-26T18:04:31.840Z,101381.03
2017-10-26T18:06:57.744Z,101381.28
2017-10-26T18:09:24.513Z,101398.22
2017-10-26T18:11:50.983Z,101394.66
2017-10-26T18:14:17.668Z,101404.16
2017-10-26T18:16:43.478Z,101408.48
2017-10-26T18:19:09.250Z,101414.20
2017-10-26T18:21:34.989Z,101411.95
2017-10-26T18:24:00.747Z,101411.52
2017-10-26T18:26:26.527Z,101410.56
2017-10-26T18:28:53.261Z,101406.55
2017-10-26T18:31:19.046Z,101409.78
2017-10-26T18:33:45.571Z,101401.64
2017-10-26T18:36:12.244Z,101398.05
2017-10-26T18:38:38.805Z,101401.95
2017-10-26T18:41:04.584Z,101393.30
2017-10-26T18:43:30.423Z,101393.03
2017-10-26T18:45:56.201Z,101396.25
2017-10-26T18:48:21.980Z,101394.15
2017-10-26T18:50:47.727Z,101389.39
2017-10-26T18:53:13.947Z,101391.05
2017-10-26T18:55:40.523Z,101393.30
2017-10-26T18:58:07.265Z,101392.29
2017-10-26T19:00:33.816Z,101392.05
2017-10-26T19:02:59.691Z,101389.98
2017-10-26T19:05:25.444Z,101394.97
2017-10-26T19:07:51.196Z,101393.45
2017-10-26T19:10:18.006Z,101398.92
2017-10-26T19:12:43.770Z,101396.89
2017-10-26T19:15:09.519Z,101394.78
2017-10-26T19:17:35.312Z,101395.16
2017-10-26T19:20:01.112Z,101391.22
2017-10-26T19:22:26.876Z,101395.77
2017-10-26T19:24:52.656Z,101392.71
2017-10-26T19:27:19.361Z,101402.85
2017-10-26T19:29:45.154Z,101386.95
2017-10-26T19:32:10.903Z,101390.25
2017-10-26T19:34:37.431Z,101391.78
2017-10-26T19:37:03.223Z,101394.34
2017-10-26T19:39:30.679Z,101391.59
2017-10-26T19:41:57.450Z,101388.77
2017-10-26T19:44:23.208Z,101385.04
2017-10-26T19:46:49.043Z,101387.03
2017-10-26T19:49:14.789Z,101386.67
2017-10-26T19:51:40.684Z,101381.89
2017-10-26T19:54:06.456Z,101380.05
2017-10-26T19:56:32.333Z,101380.47
2017-10-26T19:58:58.143Z,101372.14
2017-10-26T20:01:23.964Z,101373.08
2017-10-26T20:03:52.203Z,101369.80
2017-10-26T20:06:17.965Z,101369.06
2017-10-26T20:08:43.717Z,101370.45
2017-10-26T20:11:09.475Z,101365.97
2017-10-26T20:13:35.237Z,101366.66
2017-10-26T20:16:01.127Z,101363.58
2017-10-26T20:18:26.928Z,101356.01
2017-10-26T20:20:52.897Z,101352.37
2017-10-26T20:23:18.787Z,101355.59
2017-10-26T20:25:44.612Z,101346.85
2017-10-26T20:28:10.432Z,101350.31
2017-10-26T20:30:36.191Z,101347.99
2017-10-26T20:33:02.103Z,101350.48
2017-10-26T20:35:27.995Z,101349.83
2017-10-26T20:37:53.888Z,101344.05
2017-10-26T20:40:25.158Z,101346.52
2017-10-26T20:42:51.226Z,101345.19
2017-10-26T20:45:17.111Z,101348.45
2017-10-26T20:47:44.254Z,101348.59
2017-10-26T20:50:16.627Z,101348.87
2017-10-26T20:52:48.762Z,101345.40
2017-10-26T20:55:23.269Z,101346.52
2017-10-26T20:57:55.093Z,101353.25
2017-10-26T21:00:26.903Z,101351.07
2017-10-26T21:02:59.620Z,101336.47
2017-10-26T21:05:31.616Z,101329.80
2017-10-26T21:08:06.202Z,101326.98
2017-10-26T21:10:38.229Z,101332.61
2017-10-26T21:13:10.322Z,101334.52
2017-10-26T21:15:36.097Z,101334.30
2017-10-26T21:18:01.943Z,101329.92
2017-10-26T21:20:28.298Z,101336.66
2017-10-26T21:22:54.196Z,101343.55
2017-10-26T21:25:20.996Z,101344.63
2017-10-26T21:27:47.925Z,101339.11
2017-10-26T21:30:13.817Z,101341.93
2017-10-26T21:32:49.480Z,101329.45
2017-10-26T21:35:15.607Z,101330.99
2017-10-26T21:37:41.354Z,101330.50
2017-10-26T21:40:17.378Z,101325.04
2017-10-26T21:42:43.115Z,101320.09
2017-10-26T21:45:08.890Z,101312.38
2017-10-26T21:47:34.755Z,101299.84
2017-10-26T21:50:01.396Z,101295.56
2017-10-26T21:52:27.320Z,101285.20
2017-10-26T21:54:53.246Z,101281.98
2017-10-26T21:57:19.173Z,101271.94
2017-10-26T21:59:44.986Z,101267.75
2017-10-26T22:02:11.865Z,101265.22
2017-10-26T22:04:37.636Z,101264.30
2017-10-26T22:07:03.472Z,101259.90
2017-10-26T22:09:29.264Z,101264.95
2017-10-26T22:11:55.092Z,101264.17
2017-10-26T22:14:20.844Z,101270.67
2017-10-26T22:16:46.588Z,101277.47
2017-10-26T22:19:12.324Z,101273.20
2017-10-26T22:21:38.087Z,101273.50
2017-10-26T22:24:03.839Z,101265.72
2017-10-26T22:26:29.575Z,101261.97
2017-10-26T22:28:55.313Z,101259.97
2017-10-26T22:31:21.060Z,101253.25
2017-10-26T22:33:48.861Z,101255.42
2017-10-26T22:36:15.452Z,101250.16
2017-10-26T22:38:41.733Z,101256.00
2017-10-26T22:41:07.517Z,101250.91
2017-10-26T22:43:33.260Z,101241.47
2017-10-26T22:46:00.518Z,101244.95
2017-10-26T22:48:27.403Z,101245.37
2017-10-26T22:50:53.150Z,101237.95
2017-10-26T22:53:18.907Z,101236.72
2017-10-26T22:55:44.641Z,101240.53
2017-10-26T22:58:10.382Z,101226.77
2017-10-26T23:00:36.144Z,101232.14
2017-10-26T23:03:01.879Z,101228.51
2017-10-26T23:05:27.617Z,101226.34
2017-10-26T23:07:53.360Z,101232.66
2017-10-26T23:10:19.116Z,101225.37
2017-10-26T23:12:44.860Z,101218.80
2017-10-26T23:15:10.614Z,101215.70
2017-10-26T23:17:36.435Z,101209.05
2017-10-26T23:20:02.247Z,101203.36
2017-10-26T23:22:27.988Z,101205.25
2017-10-26T23:24:55.435Z,101198.61
2017-10-26T23:27:22.159Z,101195.37
2017-10-26T23:29:47.934Z,101185.08
2017-10-26T23:32:13.679Z,101181.95
2017-10-26T23:34:40.351Z,101172.77
2017-10-26T23:37:06.092Z,101175.50
2017-10-26T23:39:32.660Z,101183.21
2017-10-26T23:41:58.400Z,101184.05
2017-10-26T23:44:25.115Z,101178.16
2017-10-26T23:46:51.885Z,101180.75
2017-10-26T23:49:17.832Z,101168.86
2017-10-26T23:51:44.200Z,101170.34
2017-10-26T23:54:09.962Z,101173.49
2017-10-26T23:56:35.713Z,101185.99
2017-10-26T23:59:01.456Z,101175.36
